Time;durP1;ratioP1;P1;durP2;ratioP2;P2;SDS_P1;SDS_P2;PMS_P1;PMS_P2;Temp;Humidity;BMP_temperature;BMP_pressure;BME280_temperature;BME280_humidity;BME280_pressure;Samples;Min_cycle;Max_cycle;Signal;HPM_P1;HPM_P2
2023/07/19 00:00:14;;;;;;;6.80;2.90;;;17.80;99.90;;;;;;5032759;28;20168;-74
2023/07/19 00:02:40;;;;;;;3.78;2.40;;;17.80;99.90;;;;;;5035965;28;20037;-74
2023/07/19 00:05:08;;;;;;;7.10;2.47;;;17.80;99.90;;;;;;5018952;28;20049;-74
2023/07/19 00:07:33;;;;;;;6.18;2.67;;;17.90;99.90;;;;;;5035399;28;20044;-74
2023/07/19 00:09:59;;;;;;;7.38;2.42;;;17.90;99.90;;;;;;5035336;28;20037;-74
2023/07/19 00:12:25;;;;;;;5.53;1.98;;;17.80;99.90;;;;;;5035364;28;20056;-74
2023/07/19 00:14:50;;;;;;;4.68;2.42;;;17.80;99.90;;;;;;5035566;28;20041;-74
2023/07/19 00:17:16;;;;;;;6.40;2.45;;;17.80;99.90;;;;;;5035274;28;20041;-74
2023/07/19 00:19:41;;;;;;;5.63;2.13;;;17.80;99.90;;;;;;5035016;28;20038;-74
2023/07/19 00:22:08;;;;;;;4.63;2.30;;;17.80;99.90;;;;;;5018724;28;20033;-74
2023/07/19 00:24:33;;;;;;;5.10;2.42;;;17.80;99.90;;;;;;5035433;28;20548;-74
2023/07/19 00:26:59;;;;;;;5.55;2.60;;;17.70;99.90;;;;;;5035350;28;20038;-74
2023/07/19 00:29:25;;;;;;;4.95;2.45;;;17.70;99.90;;;;;;5034959;28;20521;-74
2023/07/19 00:31:50;;;;;;;6.90;2.80;;;17.70;99.90;;;;;;5034962;28;20073;-74
2023/07/19 00:34:16;;;;;;;7.55;2.85;;;17.60;99.90;;;;;;5034922;28;20044;-74
2023/07/19 00:36:41;;;;;;;5.45;2.47;;;17.60;99.90;;;;;;5035171;28;20041;-74
2023/07/19 00:39:07;;;;;;;6.88;2.60;;;17.60;99.90;;;;;;5034717;28;20046;-73
2023/07/19 00:41:33;;;;;;;9.15;3.05;;;17.70;99.90;;;;;;5034811;28;20033;-73
2023/07/19 00:43:59;;;;;;;4.53;2.78;;;17.70;99.90;;;;;;5035051;28;20092;-73
2023/07/19 00:46:25;;;;;;;4.38;2.78;;;17.60;99.90;;;;;;5034754;28;20410;-73
2023/07/19 00:48:51;;;;;;;4.80;2.55;;;17.60;99.90;;;;;;5034446;28;20048;-73
2023/07/19 00:51:18;;;;;;;8.68;3.08;;;17.60;99.90;;;;;;5018118;28;20116;-73
2023/07/19 00:53:47;;;;;;;6.55;2.83;;;17.50;99.90;;;;;;5034649;28;20574;-73
2023/07/19 00:56:13;;;;;;;7.03;3.35;;;17.50;99.90;;;;;;5034586;28;20076;-73
2023/07/19 00:58:40;;;;;;;7.28;2.70;;;17.50;99.90;;;;;;5017914;28;20049;-73
2023/07/19 01:01:06;;;;;;;6.78;2.97;;;17.60;99.90;;;;;;5034450;28;20490;-73
2023/07/19 01:03:32;;;;;;;4.95;2.70;;;17.50;99.90;;;;;;5034692;28;20040;-73
2023/07/19 01:05:59;;;;;;;4.38;2.70;;;17.50;99.90;;;;;;5034596;28;20123;-73
2023/07/19 01:08:25;;;;;;;7.93;3.10;;;17.50;99.90;;;;;;5034245;28;20048;-73
2023/07/19 01:10:51;;;;;;;5.68;2.90;;;17.50;99.90;;;;;;5034037;28;20045;-73
2023/07/19 01:13:17;;;;;;;6.28;2.67;;;17.50;99.90;;;;;;5033746;28;20030;-73
2023/07/19 01:15:43;;;;;;;6.05;2.85;;;17.40;99.90;;;;;;5034185;28;20391;-73
2023/07/19 01:18:09;;;;;;;6.53;3.00;;;17.40;99.90;;;;;;5034064;28;20033;-74
2023/07/19 01:20:35;;;;;;;5.30;2.67;;;17.40;99.90;;;;;;5034048;28;20096;-74
2023/07/19 01:23:01;;;;;;;4.63;2.83;;;17.40;99.90;;;;;;5034292;28;20072;-74
2023/07/19 01:25:27;;;;;;;5.60;2.80;;;17.40;99.90;;;;;;5033975;28;20037;-74
2023/07/19 01:27:52;;;;;;;4.07;2.58;;;17.40;99.90;;;;;;5034737;28;20034;-74
2023/07/19 01:30:18;;;;;;;6.40;2.97;;;17.40;99.90;;;;;;5034513;28;20044;-74
2023/07/19 01:32:44;;;;;;;8.00;2.65;;;17.40;99.90;;;;;;5033909;28;20418;-74
2023/07/19 01:35:10;;;;;;;6.43;3.10;;;17.40;99.90;;;;;;5017319;28;20084;-74
2023/07/19 01:37:36;;;;;;;4.97;2.95;;;17.40;99.90;;;;;;5033991;28;20103;-74
2023/07/19 01:40:02;;;;;;;4.93;2.60;;;17.40;99.90;;;;;;5033569;28;20053;-74
2023/07/19 01:42:27;;;;;;;6.85;2.97;;;17.40;99.90;;;;;;5033715;28;20145;-74
2023/07/19 01:44:56;;;;;;;5.82;2.97;;;17.40;99.90;;;;;;5017191;28;20125;-74
2023/07/19 01:47:22;;;;;;;6.80;3.10;;;17.40;99.90;;;;;;5033806;28;20402;-74
2023/07/19 01:49:47;;;;;;;6.80;3.78;;;17.40;99.90;;;;;;5033390;28;20560;-73
2023/07/19 01:52:13;;;;;;;4.85;3.13;;;17.40;99.90;;;;;;5033540;28;20128;-73
2023/07/19 01:54:38;;;;;;;6.97;3.38;;;17.30;99.90;;;;;;5033485;28;20049;-73
2023/07/19 01:57:05;;;;;;;5.72;3.05;;;17.30;99.90;;;;;;5033625;28;20049;-73
2023/07/19 01:59:31;;;;;;;6.60;3.60;;;17.30;99.90;;;;;;5016698;28;20052;-74
2023/07/19 02:01:56;;;;;;;5.25;3.00;;;17.30;99.90;;;;;;5033366;28;20033;-74
2023/07/19 02:04:22;;;;;;;6.30;3.35;;;17.30;99.90;;;;;;5033511;28;20103;-74
2023/07/19 02:06:48;;;;;;;8.13;3.40;;;17.30;99.90;;;;;;5017035;28;20041;-73
2023/07/19 02:09:14;;;;;;;5.68;3.47;;;17.30;99.90;;;;;;5033434;28;20041;-73
2023/07/19 02:11:40;;;;;;;5.40;3.38;;;17.30;99.90;;;;;;5033120;28;20049;-73
2023/07/19 02:14:06;;;;;;;6.25;3.58;;;17.30;99.90;;;;;;5016856;28;20076;-73
2023/07/19 02:16:32;;;;;;;7.82;3.97;;;17.30;99.90;;;;;;5033274;28;20414;-73
2023/07/19 02:18:58;;;;;;;9.10;4.07;;;17.30;99.90;;;;;;5032901;28;20037;-74
2023/07/19 02:21:24;;;;;;;6.50;3.28;;;17.20;99.90;;;;;;5032958;28;20041;-74
2023/07/19 02:23:50;;;;;;;4.97;3.13;;;17.20;99.90;;;;;;5032795;28;20115;-74
2023/07/19 02:26:15;;;;;;;7.32;3.75;;;17.20;99.90;;;;;;5033120;28;20544;-73
2023/07/19 02:28:42;;;;;;;11.50;4.43;;;17.20;99.90;;;;;;5033012;28;20041;-73
2023/07/19 02:31:07;;;;;;;9.23;4.18;;;17.20;99.90;;;;;;5032976;28;20037;-74
2023/07/19 02:33:33;;;;;;;7.40;3.88;;;17.20;99.90;;;;;;5032750;28;20557;-74
2023/07/19 02:35:58;;;;;;;8.30;4.28;;;17.20;99.90;;;;;;5032664;28;20049;-74
2023/07/19 02:38:25;;;;;;;6.35;3.65;;;17.20;99.90;;;;;;5032489;28;20048;-74
2023/07/19 02:40:58;;;;;;;6.30;4.13;;;17.10;99.90;;;;;;5032856;28;20049;-74
2023/07/19 02:43:23;;;;;;;5.80;3.72;;;17.20;99.90;;;;;;5032610;28;20076;-74
2023/07/19 02:45:49;;;;;;;7.32;3.60;;;17.10;99.90;;;;;;5032756;28;20073;-74
2023/07/19 02:48:14;;;;;;;6.40;3.80;;;17.10;99.90;;;;;;5032360;28;20449;-74
2023/07/19 02:50:47;;;;;;;5.30;3.70;;;17.10;99.90;;;;;;5032589;28;20128;-74
2023/07/19 02:53:13;;;;;;;;;;;17.10;99.90;;;;;;5032892;28;20096;-74
2023/07/19 02:55:39;;;;;;;7.28;3.78;;;17.00;99.90;;;;;;5032323;28;19920;-74
2023/07/19 02:58:05;;;;;;;6.85;3.80;;;17.00;99.90;;;;;;5032282;28;20056;-74
2023/07/19 03:00:30;;;;;;;7.18;3.72;;;17.00;99.90;;;;;;5032101;28;20037;-74
2023/07/19 03:02:56;;;;;;;7.68;4.07;;;17.10;99.90;;;;;;5032243;28;20075;-74
2023/07/19 03:05:22;;;;;;;7.07;3.55;;;17.00;99.90;;;;;;5015735;28;20080;-74
2023/07/19 03:07:49;;;;;;;7.10;4.30;;;17.10;99.90;;;;;;5032410;28;20490;-74
2023/07/19 03:10:14;;;;;;;8.80;4.50;;;17.10;99.90;;;;;;5032310;28;20045;-74
2023/07/19 03:12:40;;;;;;;8.02;3.88;;;17.10;99.90;;;;;;5032334;28;20059;-74
2023/07/19 03:15:06;;;;;;;5.38;4.20;;;17.10;99.90;;;;;;5032288;28;20085;-74
2023/07/19 03:17:32;;;;;;;7.65;4.15;;;17.00;99.90;;;;;;5032010;28;20125;-74
2023/07/19 03:19:58;;;;;;;6.70;4.22;;;17.00;99.90;;;;;;5031854;28;20121;-74
2023/07/19 03:22:23;;;;;;;8.20;4.57;;;17.00;99.90;;;;;;5031948;28;20038;-74
2023/07/19 03:24:49;;;;;;;7.55;4.50;;;17.00;99.90;;;;;;5032146;28;20087;-74
2023/07/19 03:27:14;;;;;;;8.50;4.70;;;17.00;99.90;;;;;;5032169;28;20040;-74
2023/07/19 03:29:40;;;;;;;6.78;4.03;;;17.00;99.90;;;;;;5031868;28;20037;-74
2023/07/19 03:32:06;;;;;;;7.10;4.38;;;17.10;99.90;;;;;;5031824;28;20041;-74
2023/07/19 03:34:32;;;;;;;11.40;5.50;;;17.00;99.90;;;;;;5031243;28;20052;-74
2023/07/19 03:36:58;;;;;;;14.77;5.68;;;17.00;99.90;;;;;;5031798;28;20042;-74
2023/07/19 03:39:23;;;;;;;9.18;4.38;;;17.10;99.90;;;;;;5031624;28;20046;-74
2023/07/19 03:41:49;;;;;;;7.70;4.57;;;17.00;99.90;;;;;;5031750;28;20049;-74
2023/07/19 03:44:15;;;;;;;9.68;5.22;;;17.00;99.90;;;;;;5031741;28;20038;-74
2023/07/19 03:46:40;;;;;;;10.82;5.00;;;17.00;99.90;;;;;;5031968;28;20080;-74
2023/07/19 03:49:06;;;;;;;7.65;4.55;;;17.00;99.90;;;;;;5031483;28;20045;-74
2023/07/19 03:51:31;;;;;;;9.73;5.40;;;17.00;99.90;;;;;;5031893;28;20095;-74
2023/07/19 03:53:57;;;;;;;9.57;5.40;;;17.00;99.90;;;;;;5031984;28;20041;-74
2023/07/19 03:56:22;;;;;;;8.93;5.45;;;17.00;99.90;;;;;;5031673;28;20391;-74
2023/07/19 03:58:49;;;;;;;9.98;6.00;;;17.10;99.90;;;;;;5031543;28;20041;-74
2023/07/19 04:01:15;;;;;;;9.88;6.10;;;17.00;99.90;;;;;;5031558;28;20163;-74
2023/07/19 04:03:41;;;;;;;12.15;5.53;;;17.10;99.90;;;;;;5031567;28;20120;-74
2023/07/19 04:06:07;;;;;;;10.18;5.20;;;17.10;99.90;;;;;;5031557;28;20042;-74
2023/07/19 04:08:33;;;;;;;9.63;5.30;;;17.10;99.90;;;;;;5031480;28;20069;-74
2023/07/19 04:10:59;;;;;;;9.77;5.47;;;17.10;99.90;;;;;;5031554;28;20038;-74
2023/07/19 04:13:28;;;;;;;8.70;5.65;;;17.10;99.90;;;;;;5031551;28;20041;-74
2023/07/19 04:15:54;;;;;;;9.30;5.75;;;17.10;99.90;;;;;;5031460;28;20038;-74
2023/07/19 04:18:20;;;;;;;8.52;5.70;;;17.10;99.90;;;;;;5031599;28;20038;-74
2023/07/19 04:20:45;;;;;;;11.25;5.78;;;17.10;99.90;;;;;;5031335;28;20095;-74
2023/07/19 04:23:11;;;;;;;10.27;5.95;;;17.10;99.90;;;;;;5031647;28;20160;-74
2023/07/19 04:25:37;;;;;;;10.88;6.20;;;17.10;99.90;;;;;;5031339;28;20041;-74
2023/07/19 04:28:03;;;;;;;7.97;6.22;;;17.20;99.90;;;;;;5031303;28;20120;-74
2023/07/19 04:30:29;;;;;;;13.77;6.45;;;17.10;99.90;;;;;;5031488;28;20045;-73
2023/07/19 04:32:55;;;;;;;9.02;5.57;;;17.20;99.90;;;;;;5031274;28;20399;-73
2023/07/19 04:35:22;;;;;;;14.23;6.55;;;17.20;99.90;;;;;;5031283;28;20083;-74
2023/07/19 04:37:49;;;;;;;9.93;6.43;;;17.20;99.90;;;;;;5031511;28;20418;-74
2023/07/19 04:40:16;;;;;;;10.15;5.90;;;17.20;99.90;;;;;;5031035;28;20080;-74
2023/07/19 04:42:42;;;;;;;9.60;6.13;;;17.20;99.90;;;;;;5031431;28;20517;-74
2023/07/19 04:45:08;;;;;;;10.85;5.93;;;17.30;99.90;;;;;;5031480;28;20056;-74
2023/07/19 04:47:36;;;;;;;10.00;5.97;;;17.30;99.90;;;;;;5032765;28;20128;-74
2023/07/19 04:50:08;;;;;;;12.20;6.68;;;17.30;99.90;;;;;;5034441;28;20045;-74
2023/07/19 04:52:35;;;;;;;8.57;6.03;;;17.30;99.90;;;;;;5034671;28;20052;-74
2023/07/19 04:55:05;;;;;;;10.27;6.10;;;17.30;99.90;;;;;;5034551;28;20561;-74
2023/07/19 04:57:31;;;;;;;13.07;6.53;;;17.30;99.90;;;;;;5018266;28;20124;-74
2023/07/19 04:59:56;;;;;;;9.00;6.70;;;17.30;99.90;;;;;;5034430;28;20129;-74
2023/07/19 05:02:22;;;;;;;9.40;6.38;;;17.30;99.90;;;;;;5034461;28;20505;-74
2023/07/19 05:04:48;;;;;;;11.27;6.25;;;17.30;99.90;;;;;;5034416;28;20044;-74
2023/07/19 05:07:14;;;;;;;11.80;6.28;;;17.40;99.90;;;;;;5034647;28;20037;-74
2023/07/19 05:09:42;;;;;;;13.65;6.80;;;17.30;99.90;;;;;;5034245;28;20045;-74
2023/07/19 05:12:08;;;;;;;13.30;7.10;;;17.40;99.90;;;;;;5034229;28;20095;-74
2023/07/19 05:14:34;;;;;;;9.32;6.25;;;17.40;99.90;;;;;;5034220;28;20457;-74
2023/07/19 05:17:00;;;;;;;11.15;6.28;;;17.40;99.90;;;;;;5034435;28;20041;-74
2023/07/19 05:19:25;;;;;;;11.27;6.38;;;17.40;99.90;;;;;;5034180;28;20044;-73
2023/07/19 05:21:51;;;;;;;10.57;6.65;;;17.40;99.90;;;;;;5034109;28;20044;-73
2023/07/19 05:24:16;;;;;;;8.35;5.53;;;17.40;99.90;;;;;;5034319;28;20042;-73
2023/07/19 05:26:42;;;;;;;7.95;5.22;;;17.50;99.90;;;;;;5034004;28;20037;-73
2023/07/19 05:29:09;;;;;;;11.48;5.78;;;17.40;99.90;;;;;;5034085;28;20041;-74
2023/07/19 05:31:35;;;;;;;8.73;5.97;;;17.50;99.90;;;;;;5033899;28;20120;-74
2023/07/19 05:34:01;;;;;;;9.13;5.47;;;17.50;99.90;;;;;;5033873;28;20080;-73
2023/07/19 05:36:26;;;;;;;10.02;5.57;;;17.50;99.90;;;;;;5033778;28;20047;-73
2023/07/19 05:38:53;;;;;;;9.57;5.63;;;17.50;99.90;;;;;;5033648;28;20041;-73
2023/07/19 05:41:19;;;;;;;9.05;5.00;;;17.50;99.90;;;;;;5033712;28;20113;-74
2023/07/19 05:43:44;;;;;;;9.88;5.53;;;17.50;99.90;;;;;;5033648;28;20129;-73
2023/07/19 05:46:10;;;;;;;8.27;5.10;;;17.50;99.90;;;;;;5033662;28;20049;-73
2023/07/19 05:48:36;;;;;;;6.40;4.13;;;17.60;99.90;;;;;;5033396;28;20041;-73
2023/07/19 05:51:04;;;;;;;7.32;4.25;;;17.60;99.90;;;;;;5033579;28;20037;-74
2023/07/19 05:53:29;;;;;;;10.27;4.57;;;17.60;99.90;;;;;;5033750;28;20498;-74
2023/07/19 05:55:56;;;;;;;6.07;3.75;;;17.60;99.90;;;;;;5033461;28;20044;-74
2023/07/19 05:58:22;;;;;;;6.43;4.05;;;17.70;99.90;;;;;;5033118;28;20045;-74
2023/07/19 06:00:48;;;;;;;7.15;3.50;;;17.60;99.90;;;;;;5033340;28;20060;-73
2023/07/19 06:03:16;;;;;;;6.47;2.95;;;17.60;99.90;;;;;;5033337;28;20038;-73
2023/07/19 06:05:42;;;;;;;7.10;3.25;;;17.60;99.90;;;;;;5033529;28;20584;-74
2023/07/19 06:08:08;;;;;;;8.10;3.20;;;17.60;99.90;;;;;;5016892;28;20044;-74
2023/07/19 06:10:33;;;;;;;7.15;3.20;;;17.60;99.90;;;;;;5033427;28;20045;-74
2023/07/19 06:12:59;;;;;;;6.38;2.67;;;17.60;99.90;;;;;;5016676;28;20409;-74
2023/07/19 06:15:26;;;;;;;6.90;3.08;;;17.60;99.90;;;;;;5033354;28;20037;-73
2023/07/19 06:17:51;;;;;;;7.45;2.63;;;17.60;99.90;;;;;;5033021;28;20037;-73
2023/07/19 06:20:17;;;;;;;6.47;2.40;;;17.60;99.90;;;;;;5032876;28;20041;-73
2023/07/19 06:22:43;;;;;;;4.50;2.50;;;17.70;99.90;;;;;;5033152;28;20042;-73
2023/07/19 06:25:09;;;;;;;5.28;2.45;;;17.70;99.90;;;;;;5032840;28;20405;-73
2023/07/19 06:27:35;;;;;;;6.13;2.83;;;17.70;99.90;;;;;;5033032;28;20029;-73
2023/07/19 06:30:00;;;;;;;6.88;2.80;;;17.70;99.90;;;;;;5033039;28;20037;-74
2023/07/19 06:32:26;;;;;;;6.75;2.97;;;17.80;99.90;;;;;;5032978;28;20045;-74
2023/07/19 06:34:52;;;;;;;7.25;3.10;;;17.80;99.90;;;;;;5016479;28;20042;-73
2023/07/19 06:37:18;;;;;;;7.45;3.05;;;17.80;99.90;;;;;;5032684;28;20411;-73
2023/07/19 06:39:43;;;;;;;5.72;2.90;;;17.90;99.90;;;;;;5032491;28;20041;-73
2023/07/19 06:42:09;;;;;;;4.72;2.67;;;17.90;99.90;;;;;;5032581;28;20038;-74
2023/07/19 06:44:35;;;;;;;6.93;3.28;;;17.90;99.90;;;;;;5032569;28;20103;-74
2023/07/19 06:47:01;;;;;;;9.05;2.70;;;17.90;99.90;;;;;;5032524;28;20048;-74
2023/07/19 06:49:26;;;;;;;5.05;2.67;;;18.00;99.90;;;;;;5032270;28;20088;-73
2023/07/19 06:51:52;;;;;;;6.85;3.00;;;18.00;99.90;;;;;;5032656;28;20034;-74
2023/07/19 06:54:17;;;;;;;7.78;2.92;;;18.00;99.90;;;;;;5032378;28;20461;-74
2023/07/19 06:56:43;;;;;;;4.53;2.70;;;18.00;99.90;;;;;;5032332;28;20045;-74
2023/07/19 06:59:09;;;;;;;6.65;3.05;;;18.10;99.90;;;;;;5032156;28;20084;-73
2023/07/19 07:01:35;;;;;;;5.25;3.10;;;18.10;99.90;;;;;;5032283;28;20034;-73
2023/07/19 07:04:01;;;;;;;6.07;3.20;;;18.10;99.90;;;;;;5015762;28;20121;-73
2023/07/19 07:06:27;;;;;;;5.20;2.85;;;18.10;99.90;;;;;;5032240;28;20486;-74
2023/07/19 07:08:52;;;;;;;7.05;3.17;;;18.10;99.90;;;;;;5031765;28;20045;-73
2023/07/19 07:11:18;;;;;;;8.68;2.90;;;18.10;99.90;;;;;;5031619;28;20040;-73
2023/07/19 07:13:44;;;;;;;4.93;2.92;;;18.20;99.90;;;;;;5032079;28;20041;-73
2023/07/19 07:16:11;;;;;;;6.13;2.63;;;18.20;99.90;;;;;;5032030;28;20073;-73
2023/07/19 07:18:37;;;;;;;8.82;3.00;;;18.20;99.90;;;;;;5031885;28;20034;-73
2023/07/19 07:21:03;;;;;;;6.05;2.80;;;18.20;99.90;;;;;;5031990;28;20121;-73
2023/07/19 07:23:29;;;;;;;6.60;2.75;;;18.20;99.90;;;;;;5031959;28;20034;-73
2023/07/19 07:25:54;;;;;;;7.60;2.53;;;18.20;99.90;;;;;;5032151;28;20193;-73
2023/07/19 07:28:20;;;;;;;8.43;2.90;;;18.20;99.90;;;;;;5032087;28;20551;-73
2023/07/19 07:30:46;;;;;;;6.80;2.40;;;18.10;99.90;;;;;;5031883;28;20528;-73
2023/07/19 07:33:11;;;;;;;7.97;2.38;;;18.20;99.90;;;;;;5031862;28;20080;-73
2023/07/19 07:35:37;;;;;;;7.20;2.25;;;18.20;99.90;;;;;;5031824;28;20046;-73
2023/07/19 07:38:03;;;;;;;4.47;2.40;;;18.20;99.90;;;;;;5031864;28;20043;-73
2023/07/19 07:40:29;;;;;;;5.82;2.17;;;18.10;99.90;;;;;;5031720;28;20040;-73
2023/07/19 07:42:55;;;;;;;6.70;2.35;;;18.20;99.90;;;;;;5015396;28;20034;-73
2023/07/19 07:45:20;;;;;;;8.35;1.90;;;18.10;99.90;;;;;;5031782;28;20096;-73
2023/07/19 07:47:46;;;;;;;6.43;2.20;;;18.10;99.90;;;;;;5031723;28;20042;-73
2023/07/19 07:50:12;;;;;;;5.55;1.90;;;18.10;99.90;;;;;;5031793;28;20080;-73
2023/07/19 07:52:38;;;;;;;6.35;1.70;;;18.10;99.90;;;;;;5031916;28;20037;-73
2023/07/19 07:55:06;;;;;;;5.15;1.77;;;18.10;99.90;;;;;;5031858;28;20498;-73
2023/07/19 07:57:37;;;;;;;5.75;1.55;;;18.00;99.90;;;;;;5031881;28;20124;-78
2023/07/19 08:00:08;;;;;;;3.90;1.38;;;18.00;99.90;;;;;;5031549;28;20045;-77
2023/07/19 08:02:33;;;;;;;4.57;1.80;;;18.00;99.90;;;;;;5032190;28;20124;-77
2023/07/19 08:05:00;;;;;;;9.95;2.65;;;17.90;99.90;;;;;;5032418;28;20069;-77
2023/07/19 08:07:25;;;;;;;4.97;2.08;;;17.90;99.90;;;;;;5031617;28;20072;-77
2023/07/19 08:09:52;;;;;;;5.95;1.70;;;17.90;99.90;;;;;;5031642;28;20080;-77
2023/07/19 08:12:20;;;;;;;6.97;1.77;;;17.90;99.90;;;;;;5031535;28;20042;-77
2023/07/19 08:14:46;;;;;;;4.53;1.70;;;17.90;99.90;;;;;;5031460;28;20056;-77
2023/07/19 08:17:12;;;;;;;6.43;1.63;;;17.90;99.90;;;;;;5031672;28;20037;-77
2023/07/19 08:19:38;;;;;;;5.05;1.65;;;18.00;99.90;;;;;;5031483;28;20175;-77
2023/07/19 08:22:05;;;;;;;4.07;1.70;;;18.00;99.90;;;;;;5034294;28;20041;-76
2023/07/19 08:24:31;;;;;;;5.63;1.38;;;18.10;99.90;;;;;;5018893;28;20033;-76
2023/07/19 08:26:57;;;;;;;6.72;1.20;;;18.20;99.90;;;;;;5035437;28;20052;-76
2023/07/19 08:29:23;;;;;;;2.25;0.80;;;18.40;99.90;;;;;;5018511;28;20380;-77
2023/07/19 08:31:49;;;;;;;3.42;1.17;;;18.60;99.90;;;;;;5018804;28;20127;-77
2023/07/19 08:34:14;;;;;;;3.85;1.30;;;18.70;99.90;;;;;;5035249;28;20471;-76
2023/07/19 08:36:40;;;;;;;6.20;1.40;;;18.90;99.90;;;;;;5019309;28;20498;-76
2023/07/19 08:39:05;;;;;;;5.35;1.45;;;19.00;99.90;;;;;;5035967;28;20044;-76
2023/07/19 08:41:34;;;;;;;3.70;1.45;;;19.10;99.90;;;;;;5018399;28;20445;-76
2023/07/19 08:44:00;;;;;;;5.20;1.40;;;19.20;99.90;;;;;;5034935;28;20033;-77
2023/07/19 08:46:25;;;;;;;4.07;1.65;;;19.30;99.90;;;;;;5035061;28;20033;-77
2023/07/19 08:48:51;;;;;;;6.63;1.48;;;19.30;99.90;;;;;;5034617;28;20087;-76
2023/07/19 08:51:17;;;;;;;5.80;1.63;;;19.40;99.90;;;;;;5034709;28;20042;-76
2023/07/19 08:53:44;;;;;;;4.20;1.30;;;19.50;99.90;;;;;;5034896;28;20498;-76
2023/07/19 08:56:11;;;;;;;6.72;1.33;;;19.60;99.90;;;;;;5034886;28;20037;-76
2023/07/19 08:58:39;;;;;;;4.03;1.30;;;19.60;99.90;;;;;;5035119;28;20042;-76
2023/07/19 09:01:06;;;;;;;5.43;1.40;;;19.70;99.90;;;;;;5034863;28;20084;-76
2023/07/19 09:03:31;;;;;;;6.50;1.50;;;19.70;99.80;;;;;;5035501;28;20041;-76
2023/07/19 09:05:57;;;;;;;7.82;1.65;;;19.60;99.60;;;;;;5018136;28;20584;-76
2023/07/19 09:08:35;;;;;;;11.80;1.40;;;19.60;99.90;;;;;;5018061;28;20563;-76
2023/07/19 09:11:01;;;;;;;6.40;1.48;;;19.60;99.90;;;;;;5034316;28;20387;-77
2023/07/19 09:13:31;;;;;;;4.93;1.02;;;19.60;99.90;;;;;;5018062;28;20111;-77
2023/07/19 09:15:57;;;;;;;7.45;1.38;;;19.80;99.90;;;;;;5017686;28;20490;-77
2023/07/19 09:18:28;;;;;;;5.32;1.63;;;20.00;99.90;;;;;;5017643;28;20033;-76
2023/07/19 09:20:58;;;;;;;6.70;2.10;;;20.10;99.90;;;;;;5017730;28;20052;-77
2023/07/19 09:23:24;;;;;;;5.38;1.50;;;20.30;99.90;;;;;;5034221;28;20069;-76
2023/07/19 09:25:55;;;;;;;3.13;1.20;;;20.30;98.90;;;;;;5034303;28;20128;-76
2023/07/19 09:28:24;;;;;;;3.88;1.13;;;20.20;98.40;;;;;;5017535;28;20045;-76
2023/07/19 09:30:58;;;;;;;5.55;1.25;;;20.00;98.30;;;;;;5033979;28;20041;-76
2023/07/19 09:33:27;;;;;;;5.93;1.35;;;20.00;98.20;;;;;;5033155;28;20512;-77
2023/07/19 09:35:54;;;;;;;7.63;1.30;;;19.90;98.80;;;;;;5034096;28;20139;-76
2023/07/19 09:38:22;;;;;;;9.40;1.30;;;19.90;99.20;;;;;;5034000;28;20552;-76
2023/07/19 09:40:50;;;;;;;4.93;1.20;;;19.90;99.20;;;;;;5017167;28;20049;-76
2023/07/19 09:43:16;;;;;;;5.15;1.10;;;19.90;99.10;;;;;;5033782;28;20073;-76
2023/07/19 09:45:45;;;;;;;4.55;1.45;;;19.90;98.70;;;;;;5033962;28;20077;-76
2023/07/19 09:48:11;;;;;;;4.60;1.33;;;19.90;98.40;;;;;;5033548;28;20498;-76
2023/07/19 09:50:41;;;;;;;3.78;1.80;;;20.00;98.60;;;;;;5033756;28;20087;-75
2023/07/19 09:53:12;;;;;;;3.58;1.52;;;20.10;97.90;;;;;;5017085;28;20041;-75
2023/07/19 09:55:38;;;;;;;7.25;2.10;;;20.10;97.60;;;;;;5033571;28;20095;-75
2023/07/19 09:58:07;;;;;;;5.28;1.58;;;20.30;97.80;;;;;;5033677;28;20391;-75
2023/07/19 10:00:34;;;;;;;5.22;1.98;;;20.50;98.20;;;;;;5016763;28;20080;-76
2023/07/19 10:02:59;;;;;;;5.10;1.80;;;20.70;97.50;;;;;;5017945;28;20048;-76
2023/07/19 10:05:28;;;;;;;7.53;1.67;;;20.80;96.90;;;;;;5033314;28;20154;-76
2023/07/19 10:08:01;;;;;;;5.72;1.73;;;21.00;97.00;;;;;;5033248;28;20633;-76
2023/07/19 10:10:35;;;;;;;6.72;1.75;;;21.10;96.40;;;;;;5033202;28;20123;-76
2023/07/19 10:13:01;;;;;;;3.70;1.63;;;21.20;96.60;;;;;;5033349;28;20049;-77
2023/07/19 10:15:27;;;;;;;6.93;1.70;;;21.20;96.20;;;;;;5016616;28;20045;-77
2023/07/19 10:17:55;;;;;;;3.83;1.35;;;21.40;96.50;;;;;;5033337;28;20076;-77
2023/07/19 10:20:44;;;;;;;5.15;1.70;;;21.50;95.80;;;;;;5032930;28;20046;-76
2023/07/19 10:23:14;;;;;;;5.60;1.80;;;21.70;95.60;;;;;;5033275;28;20056;-76
2023/07/19 10:25:49;;;;;;;5.95;1.52;;;21.70;95.00;;;;;;5033003;28;20045;-75
2023/07/19 10:28:29;;;;;;;4.68;1.30;;;21.70;94.30;;;;;;5016309;28;20469;-75
2023/07/19 10:30:56;;;;;;;4.85;1.17;;;21.40;94.30;;;;;;5032825;28;20124;-76
2023/07/19 10:33:22;;;;;;;4.15;1.35;;;21.20;95.10;;;;;;5032762;28;20095;-76
2023/07/19 10:35:50;;;;;;;6.85;1.40;;;21.10;95.50;;;;;;5032770;28;20437;-76
2023/07/19 10:38:26;;;;;;;4.82;1.00;;;20.90;95.70;;;;;;5032819;28;20047;-76
2023/07/19 10:40:56;;;;;;;2.95;1.00;;;20.70;95.90;;;;;;5032647;28;20124;-76
2023/07/19 10:43:22;;;;;;;4.07;1.27;;;20.50;96.30;;;;;;5032669;28;20045;-76
2023/07/19 10:45:48;;;;;;;11.45;2.25;;;20.40;96.70;;;;;;5032502;28;20076;-76
2023/07/19 10:48:14;;;;;;;6.10;1.67;;;20.20;97.80;;;;;;5032310;28;20073;-76
2023/07/19 10:50:43;;;;;;;9.02;2.53;;;20.10;99.70;;;;;;5032412;28;20034;-76
2023/07/19 10:53:09;;;;;;;8.95;1.92;;;19.90;99.90;;;;;;5032436;28;20092;-76
2023/07/19 10:55:35;;;;;;;5.78;1.80;;;19.70;99.90;;;;;;5016038;28;20040;-76
2023/07/19 10:58:01;;;;;;;4.35;1.77;;;19.50;99.90;;;;;;5032363;28;20041;-76
2023/07/19 11:00:26;;;;;;;5.05;1.80;;;19.50;99.90;;;;;;5032245;28;20041;-76
2023/07/19 11:02:53;;;;;;;7.47;2.08;;;19.50;99.90;;;;;;5032281;28;20116;-76
2023/07/19 11:05:19;;;;;;;6.35;1.90;;;19.40;99.90;;;;;;5015867;28;20048;-76
2023/07/19 11:07:50;;;;;;;6.93;2.20;;;19.50;99.90;;;;;;5032204;28;20033;-76
2023/07/19 11:10:16;;;;;;;4.75;2.00;;;19.60;99.90;;;;;;5032213;28;20128;-76
2023/07/19 11:12:42;;;;;;;4.63;1.80;;;19.60;99.90;;;;;;5032128;28;20124;-75
2023/07/19 11:15:08;;;;;;;5.72;2.03;;;19.70;99.90;;;;;;5015739;28;20072;-76
2023/07/19 11:17:35;;;;;;;6.10;1.52;;;19.80;99.90;;;;;;5032253;28;20041;-76
2023/07/19 11:20:01;;;;;;;5.40;1.77;;;20.00;99.90;;;;;;5032030;28;20076;-75
2023/07/19 11:22:27;;;;;;;4.60;1.50;;;20.40;99.90;;;;;;5032103;28;20509;-75
2023/07/19 11:24:54;;;;;;;5.22;1.73;;;20.70;99.90;;;;;;5032005;28;20557;-74
2023/07/19 11:27:33;;;;;;;3.22;1.42;;;20.80;99.90;;;;;;5031927;28;20075;-74
2023/07/19 11:29:59;;;;;;;7.93;1.98;;;20.80;99.90;;;;;;5031903;28;20120;-74
2023/07/19 11:32:24;;;;;;;3.45;1.85;;;20.80;99.90;;;;;;5015498;28;20079;-76
2023/07/19 11:34:56;;;;;;;3.72;1.45;;;20.70;99.90;;;;;;5032439;28;20086;-75
2023/07/19 11:37:29;;;;;;;8.38;3.13;;;20.60;99.90;;;;;;5032549;28;20098;-76
2023/07/19 11:39:59;;;;;;;8.00;2.20;;;20.40;99.90;;;;;;5015323;28;20042;-76
2023/07/19 11:42:47;;;;;;;10.90;2.63;;;20.10;99.90;;;;;;5031781;28;20490;-75
2023/07/19 11:45:15;;;;;;;7.20;2.28;;;20.00;99.90;;;;;;5015332;28;20422;-75
2023/07/19 11:47:41;;;;;;;5.47;1.70;;;19.70;99.90;;;;;;5031732;28;20052;-75
2023/07/19 11:50:09;;;;;;;5.40;2.20;;;19.60;99.90;;;;;;5031805;28;20375;-75
2023/07/19 11:52:46;;;;;;;9.35;2.50;;;19.60;99.90;;;;;;5031669;28;20050;-75
2023/07/19 11:55:16;;;;;;;8.05;2.55;;;19.60;99.90;;;;;;5031716;28;20052;-75
2023/07/19 11:57:42;;;;;;;5.97;2.45;;;19.70;99.90;;;;;;5035401;28;20045;-75
2023/07/19 12:00:10;;;;;;;6.50;2.45;;;19.90;99.90;;;;;;5018994;28;20060;-75
2023/07/19 12:02:37;;;;;;;5.75;2.30;;;20.30;99.90;;;;;;5035929;28;20133;-75
2023/07/19 12:05:06;;;;;;;5.30;2.58;;;20.60;99.90;;;;;;5035746;28;20037;-75
2023/07/19 12:07:32;;;;;;;7.15;3.05;;;21.10;99.90;;;;;;5035842;28;20033;-75
2023/07/19 12:09:59;;;;;;;6.63;2.17;;;21.60;99.90;;;;;;5035406;28;20415;-75
2023/07/19 12:12:25;;;;;;;5.50;1.92;;;22.00;99.90;;;;;;5035471;28;20045;-75
2023/07/19 12:14:51;;;;;;;4.60;2.03;;;22.00;99.90;;;;;;5035646;28;20033;-75
2023/07/19 12:17:16;;;;;;;6.00;2.20;;;21.80;99.90;;;;;;5035612;28;20514;-76
2023/07/19 12:19:42;;;;;;;7.25;2.28;;;21.60;99.90;;;;;;5035607;28;20402;-75
2023/07/19 12:22:07;;;;;;;5.47;2.60;;;21.40;99.90;;;;;;5035190;28;20033;-76
2023/07/19 12:24:33;;;;;;;6.53;2.90;;;21.20;99.90;;;;;;5019073;28;20042;-77
2023/07/19 12:26:59;;;;;;;5.43;2.55;;;21.10;99.90;;;;;;5018917;28;20525;-77
2023/07/19 12:29:25;;;;;;;6.78;2.53;;;20.90;99.90;;;;;;5018723;28;20037;-77
2023/07/19 12:31:52;;;;;;;7.25;2.92;;;20.90;99.90;;;;;;5018829;28;20418;-77
2023/07/19 12:34:20;;;;;;;7.40;3.35;;;20.80;99.90;;;;;;5035329;28;20128;-77
2023/07/19 12:36:47;;;;;;;12.20;3.75;;;20.70;99.90;;;;;;5035274;28;20120;-77
2023/07/19 12:39:13;;;;;;;10.13;4.15;;;20.50;99.90;;;;;;5034811;28;20052;-78
2023/07/19 12:41:39;;;;;;;10.85;3.83;;;20.30;99.90;;;;;;5018379;28;20494;-78